15:07
Airports
History
Links
Donate
Help keep this website running!
PayPal
Bitcoin
This page is community maintained. The information is intended for PC simulator navigation or reference.
Always use approved charts for navigation.
ETNU
Neubrandenburg
Neubrandenburg (ETNU)
Trollenhagen, Mecklenburg-Vorpommern, Germany (17039)
(C)
Lat/Lng:53° 36' 7.79" N / 13° 18' 21.59" E
53.602164 / 13.305997
Elevation:228'ft / 69mMSL
ID / ICAO:ETNU
Runways:1
Longest:09-27
Concrete 2,285m / 7,498ft
Controlled:Yes
METAR08:20 GMT 2013-08-30
Altimeter: 30.12
Visibility: 6.2 statute miles
Wind: 9 knots (from 090°)
Temp: 9°c / 48°f
Humidity: 76.0%

METAR: ETNU 300820Z 09009KT 9999 BKN200 09/05 Q1020 BLACKBLU+

(Powered by phpweather)
Airport Radio Frequencies
Tower: 132.65, 122.05, 119.17, 122.1
Approach: 123.3, 129
Nearby VORs <50NM
Nearby NDBs
Runway 09 / 27
Dimensions:2285.3 x 45.1m 7498' x 148'ft
Surface:Concrete
Edge Lights:High intensity
Runway 09 [A]Runway 27 [B]
Heading:088°TH 268°TH
Lat:
Lng:
53° 36' 7.08"N
13° 17' 19.26"E
53° 36' 8.5"N
13° 19' 23.92"E
ALS:MALSMALS
User Notes and Comments
53° 36' 7.79" N / 13° 18' 21.59" E
Distance To
Airport ID:
Nearby Airports
(U) ANKLAM 21.8 NM
EDCA NE 43°
(U) TUTOW 22.4 NM
EDUW N 350°
4 Schmoldow 25.7 NM
EDBY N
(U) Dedelow 26.0 NM
EDBD SE 130°
(U) RECHLIN LARZ 30.6 NM
EDAX SW 228°
(C) Heringsdorf 39.5 NM
EDAH ENE 61°
(U) TEMPLIN GROSS DOLLN 40.6 NM
EDUT SSE 167°
VFR Chart
Flight Planning at SkyVector.com